sensor_id;sensor_type;location;lat;lon;timestamp;temperature;humidity
3504;DHT22;1766;53.490;10.174;2022-10-16T00:00:31;21.00;52.60
3504;DHT22;1766;53.490;10.174;2022-10-16T00:02:35;20.90;52.50
3504;DHT22;1766;53.490;10.174;2022-10-16T00:04:36;20.80;52.40
3504;DHT22;1766;53.490;10.174;2022-10-16T00:06:38;20.80;52.50
3504;DHT22;1766;53.490;10.174;2022-10-16T00:08:40;20.80;52.50
3504;DHT22;1766;53.490;10.174;2022-10-16T00:10:42;20.70;52.40
3504;DHT22;1766;53.490;10.174;2022-10-16T00:12:44;20.70;52.50
3504;DHT22;1766;53.490;10.174;2022-10-16T00:14:46;20.70;52.40
3504;DHT22;1766;53.490;10.174;2022-10-16T00:16:47;20.70;52.50
3504;DHT22;1766;53.490;10.174;2022-10-16T00:18:51;20.70;52.50
3504;DHT22;1766;53.490;10.174;2022-10-16T00:20:53;20.60;52.30
3504;DHT22;1766;53.490;10.174;2022-10-16T00:22:55;20.60;52.50
3504;DHT22;1766;53.490;10.174;2022-10-16T00:24:56;20.70;52.50
3504;DHT22;1766;53.490;10.174;2022-10-16T00:26:58;20.60;52.40
3504;DHT22;1766;53.490;10.174;2022-10-16T00:29:00;20.50;52.40
3504;DHT22;1766;53.490;10.174;2022-10-16T00:31:04;20.60;52.50
3504;DHT22;1766;53.490;10.174;2022-10-16T00:33:07;20.50;52.70
3504;DHT22;1766;53.490;10.174;2022-10-16T00:35:10;20.40;52.40
3504;DHT22;1766;53.490;10.174;2022-10-16T00:37:12;20.40;52.60
3504;DHT22;1766;53.490;10.174;2022-10-16T00:39:14;20.40;52.70
3504;DHT22;1766;53.490;10.174;2022-10-16T00:41:17;20.40;52.70
3504;DHT22;1766;53.490;10.174;2022-10-16T00:43:34;20.30;52.70
3504;DHT22;1766;53.490;10.174;2022-10-16T00:45:38;20.30;52.90
3504;DHT22;1766;53.490;10.174;2022-10-16T00:47:42;20.30;52.60
3504;DHT22;1766;53.490;10.174;2022-10-16T00:49:50;20.30;52.80
3504;DHT22;1766;53.490;10.174;2022-10-16T00:51:55;20.30;52.80
3504;DHT22;1766;53.490;10.174;2022-10-16T00:53:57;20.20;53.10
3504;DHT22;1766;53.490;10.174;2022-10-16T00:55:59;20.20;52.70
3504;DHT22;1766;53.490;10.174;2022-10-16T00:58:01;20.20;52.70
3504;DHT22;1766;53.490;10.174;2022-10-16T01:00:05;20.10;52.70
3504;DHT22;1766;53.490;10.174;2022-10-16T01:02:12;20.10;52.80
3504;DHT22;1766;53.490;10.174;2022-10-16T01:04:14;20.10;52.80
3504;DHT22;1766;53.490;10.174;2022-10-16T01:06:23;20.10;52.70
3504;DHT22;1766;53.490;10.174;2022-10-16T01:08:32;20.00;52.90
3504;DHT22;1766;53.490;10.174;2022-10-16T01:10:39;20.00;52.90
3504;DHT22;1766;53.490;10.174;2022-10-16T01:12:46;20.10;53.00
3504;DHT22;1766;53.490;10.174;2022-10-16T01:14:54;20.00;52.90
3504;DHT22;1766;53.490;10.174;2022-10-16T01:17:04;20.10;53.00
3504;DHT22;1766;53.490;10.174;2022-10-16T01:19:11;20.10;53.10
3504;DHT22;1766;53.490;10.174;2022-10-16T01:21:18;20.10;53.10
3504;DHT22;1766;53.490;10.174;2022-10-16T01:23:36;20.00;53.10
3504;DHT22;1766;53.490;10.174;2022-10-16T01:28:19;20.00;53.20
3504;DHT22;1766;53.490;10.174;2022-10-16T01:30:26;20.00;53.10
3504;DHT22;1766;53.490;10.174;2022-10-16T01:32:33;20.00;53.70
3504;DHT22;1766;53.490;10.174;2022-10-16T01:34:44;20.00;53.20
3504;DHT22;1766;53.490;10.174;2022-10-16T01:36:52;20.00;53.20
3504;DHT22;1766;53.490;10.174;2022-10-16T01:39:01;20.00;53.20
3504;DHT22;1766;53.490;10.174;2022-10-16T01:41:08;19.90;53.10
3504;DHT22;1766;53.490;10.174;2022-10-16T01:43:15;19.90;53.10
3504;DHT22;1766;53.490;10.174;2022-10-16T01:45:20;19.90;53.10
3504;DHT22;1766;53.490;10.174;2022-10-16T01:47:25;19.90;53.10
3504;DHT22;1766;53.490;10.174;2022-10-16T01:49:31;20.00;53.10
3504;DHT22;1766;53.490;10.174;2022-10-16T01:51:35;19.90;52.90
3504;DHT22;1766;53.490;10.174;2022-10-16T01:53:37;19.90;53.00
3504;DHT22;1766;53.490;10.174;2022-10-16T01:55:43;19.90;52.90
3504;DHT22;1766;53.490;10.174;2022-10-16T01:57:48;19.90;52.90
3504;DHT22;1766;53.490;10.174;2022-10-16T01:59:56;19.80;53.30
3504;DHT22;1766;53.490;10.174;2022-10-16T02:02:03;19.80;52.80
3504;DHT22;1766;53.490;10.174;2022-10-16T02:04:11;19.80;52.80
3504;DHT22;1766;53.490;10.174;2022-10-16T02:06:15;19.80;52.90
3504;DHT22;1766;53.490;10.174;2022-10-16T02:08:17;19.70;52.80
3504;DHT22;1766;53.490;10.174;2022-10-16T02:10:19;19.70;53.00
3504;DHT22;1766;53.490;10.174;2022-10-16T02:12:26;19.70;52.90
3504;DHT22;1766;53.490;10.174;2022-10-16T02:14:30;19.70;53.00
3504;DHT22;1766;53.490;10.174;2022-10-16T02:16:37;19.70;52.90
3504;DHT22;1766;53.490;10.174;2022-10-16T02:18:41;19.70;53.00
3504;DHT22;1766;53.490;10.174;2022-10-16T02:20:49;19.70;52.90
3504;DHT22;1766;53.490;10.174;2022-10-16T02:22:54;19.60;52.90
3504;DHT22;1766;53.490;10.174;2022-10-16T02:24:59;19.70;52.90
3504;DHT22;1766;53.490;10.174;2022-10-16T02:27:07;19.60;52.80
3504;DHT22;1766;53.490;10.174;2022-10-16T02:29:15;19.60;52.70
3504;DHT22;1766;53.490;10.174;2022-10-16T02:31:24;19.60;52.70
3504;DHT22;1766;53.490;10.174;2022-10-16T02:33:30;19.60;52.60
3504;DHT22;1766;53.490;10.174;2022-10-16T02:35:34;19.60;52.50
3504;DHT22;1766;53.490;10.174;2022-10-16T02:37:38;19.60;52.50
3504;DHT22;1766;53.490;10.174;2022-10-16T02:39:41;19.60;52.50
3504;DHT22;1766;53.490;10.174;2022-10-16T02:41:43;19.60;52.40
3504;DHT22;1766;53.490;10.174;2022-10-16T02:43:45;19.60;52.40
3504;DHT22;1766;53.490;10.174;2022-10-16T02:45:46;19.50;52.30
3504;DHT22;1766;53.490;10.174;2022-10-16T02:47:48;19.60;52.40
3504;DHT22;1766;53.490;10.174;2022-10-16T02:49:52;19.60;52.50
3504;DHT22;1766;53.490;10.174;2022-10-16T02:51:54;19.60;52.40
3504;DHT22;1766;53.490;10.174;2022-10-16T02:53:56;19.60;52.30
3504;DHT22;1766;53.490;10.174;2022-10-16T02:55:58;19.50;52.10
3504;DHT22;1766;53.490;10.174;2022-10-16T02:57:59;19.50;52.00
3504;DHT22;1766;53.490;10.174;2022-10-16T03:00:02;19.50;51.90
3504;DHT22;1766;53.490;10.174;2022-10-16T03:02:04;19.50;51.80
3504;DHT22;1766;53.490;10.174;2022-10-16T03:04:06;19.40;51.60
3504;DHT22;1766;53.490;10.174;2022-10-16T03:06:09;19.40;51.50
3504;DHT22;1766;53.490;10.174;2022-10-16T03:08:11;19.40;51.40
3504;DHT22;1766;53.490;10.174;2022-10-16T03:10:13;19.30;51.30
3504;DHT22;1766;53.490;10.174;2022-10-16T03:12:14;19.30;51.20
3504;DHT22;1766;53.490;10.174;2022-10-16T03:14:16;19.20;51.10
3504;DHT22;1766;53.490;10.174;2022-10-16T03:16:18;19.20;51.10
3504;DHT22;1766;53.490;10.174;2022-10-16T03:18:20;19.10;51.00
3504;DHT22;1766;53.490;10.174;2022-10-16T03:20:21;19.10;51.00
3504;DHT22;1766;53.490;10.174;2022-10-16T03:22:25;19.00;50.80
3504;DHT22;1766;53.490;10.174;2022-10-16T03:24:26;19.00;50.80
3504;DHT22;1766;53.490;10.174;2022-10-16T03:26:28;18.90;50.70
3504;DHT22;1766;53.490;10.174;2022-10-16T03:28:30;18.90;50.90
3504;DHT22;1766;53.490;10.174;2022-10-16T03:30:32;18.90;51.00
3504;DHT22;1766;53.490;10.174;2022-10-16T03:32:33;18.90;51.00
3504;DHT22;1766;53.490;10.174;2022-10-16T03:34:35;18.90;51.00
3504;DHT22;1766;53.490;10.174;2022-10-16T03:36:37;18.90;51.00
3504;DHT22;1766;53.490;10.174;2022-10-16T03:38:40;18.80;51.00
3504;DHT22;1766;53.490;10.174;2022-10-16T03:40:42;18.80;51.00
3504;DHT22;1766;53.490;10.174;2022-10-16T03:42:44;18.80;51.00
3504;DHT22;1766;53.490;10.174;2022-10-16T03:44:45;18.80;51.10
3504;DHT22;1766;53.490;10.174;2022-10-16T03:46:47;18.70;51.10
3504;DHT22;1766;53.490;10.174;2022-10-16T03:48:49;18.80;51.70
3504;DHT22;1766;53.490;10.174;2022-10-16T03:50:51;18.70;51.10
3504;DHT22;1766;53.490;10.174;2022-10-16T03:52:52;18.70;51.20
3504;DHT22;1766;53.490;10.174;2022-10-16T03:54:55;18.70;51.50
3504;DHT22;1766;53.490;10.174;2022-10-16T03:56:58;18.70;51.60
3504;DHT22;1766;53.490;10.174;2022-10-16T03:58:59;18.70;51.60
3504;DHT22;1766;53.490;10.174;2022-10-16T04:01:01;18.70;51.80
3504;DHT22;1766;53.490;10.174;2022-10-16T04:03:03;18.70;51.90
3504;DHT22;1766;53.490;10.174;2022-10-16T04:05:05;18.70;51.90
3504;DHT22;1766;53.490;10.174;2022-10-16T04:07:07;18.70;52.10
3504;DHT22;1766;53.490;10.174;2022-10-16T04:09:09;18.80;52.00
3504;DHT22;1766;53.490;10.174;2022-10-16T04:11:12;18.80;52.00
3504;DHT22;1766;53.490;10.174;2022-10-16T04:13:14;18.70;51.90
3504;DHT22;1766;53.490;10.174;2022-10-16T04:15:16;18.80;52.00
3504;DHT22;1766;53.490;10.174;2022-10-16T04:17:18;18.80;51.80
3504;DHT22;1766;53.490;10.174;2022-10-16T04:19:20;18.60;51.60
3504;DHT22;1766;53.490;10.174;2022-10-16T04:21:21;18.70;51.70
3504;DHT22;1766;53.490;10.174;2022-10-16T04:23:23;18.70;51.90
3504;DHT22;1766;53.490;10.174;2022-10-16T04:25:25;18.60;51.60
3504;DHT22;1766;53.490;10.174;2022-10-16T04:27:28;18.60;51.50
3504;DHT22;1766;53.490;10.174;2022-10-16T04:29:31;18.60;51.50
3504;DHT22;1766;53.490;10.174;2022-10-16T04:31:33;18.60;51.40
3504;DHT22;1766;53.490;10.174;2022-10-16T04:33:35;18.50;51.30
3504;DHT22;1766;53.490;10.174;2022-10-16T04:35:37;18.50;51.30
3504;DHT22;1766;53.490;10.174;2022-10-16T04:37:38;18.50;51.70
3504;DHT22;1766;53.490;10.174;2022-10-16T04:39:40;18.50;51.20
3504;DHT22;1766;53.490;10.174;2022-10-16T04:41:43;18.50;51.20
3504;DHT22;1766;53.490;10.174;2022-10-16T04:43:46;18.40;51.20
3504;DHT22;1766;53.490;10.174;2022-10-16T04:45:48;18.40;51.10
3504;DHT22;1766;53.490;10.174;2022-10-16T04:47:51;18.40;51.20
3504;DHT22;1766;53.490;10.174;2022-10-16T04:49:53;18.40;51.30
3504;DHT22;1766;53.490;10.174;2022-10-16T04:51:54;18.40;51.30
3504;DHT22;1766;53.490;10.174;2022-10-16T04:53:56;18.40;51.40
3504;DHT22;1766;53.490;10.174;2022-10-16T04:55:58;18.40;51.30
3504;DHT22;1766;53.490;10.174;2022-10-16T04:58:00;18.30;51.20
3504;DHT22;1766;53.490;10.174;2022-10-16T05:00:03;18.30;51.30
3504;DHT22;1766;53.490;10.174;2022-10-16T05:02:05;18.30;51.50
3504;DHT22;1766;53.490;10.174;2022-10-16T05:04:07;18.30;51.30
3504;DHT22;1766;53.490;10.174;2022-10-16T05:06:10;18.30;51.50
3504;DHT22;1766;53.490;10.174;2022-10-16T05:08:12;18.30;51.40
3504;DHT22;1766;53.490;10.174;2022-10-16T05:10:15;18.30;51.50
3504;DHT22;1766;53.490;10.174;2022-10-16T05:12:17;18.20;51.40
3504;DHT22;1766;53.490;10.174;2022-10-16T05:14:18;18.20;51.20
3504;DHT22;1766;53.490;10.174;2022-10-16T05:16:22;18.20;51.30
3504;DHT22;1766;53.490;10.174;2022-10-16T05:18:23;18.10;51.30
3504;DHT22;1766;53.490;10.174;2022-10-16T05:20:25;18.20;51.40
3504;DHT22;1766;53.490;10.174;2022-10-16T05:22:27;18.10;51.30
3504;DHT22;1766;53.490;10.174;2022-10-16T05:24:29;18.10;51.40
3504;DHT22;1766;53.490;10.174;2022-10-16T05:26:32;18.00;51.30
3504;DHT22;1766;53.490;10.174;2022-10-16T05:28:35;18.10;51.40
3504;DHT22;1766;53.490;10.174;2022-10-16T05:30:37;18.10;51.40
3504;DHT22;1766;53.490;10.174;2022-10-16T05:32:40;18.00;51.40
3504;DHT22;1766;53.490;10.174;2022-10-16T05:34:42;18.10;51.40
3504;DHT22;1766;53.490;10.174;2022-10-16T05:36:44;18.10;51.40
3504;DHT22;1766;53.490;10.174;2022-10-16T05:38:50;18.10;51.40
3504;DHT22;1766;53.490;10.174;2022-10-16T05:40:53;18.00;51.40
3504;DHT22;1766;53.490;10.174;2022-10-16T05:42:55;18.10;51.40
3504;DHT22;1766;53.490;10.174;2022-10-16T05:44:57;18.00;51.30
3504;DHT22;1766;53.490;10.174;2022-10-16T05:46:59;18.00;51.40
3504;DHT22;1766;53.490;10.174;2022-10-16T05:49:02;18.00;52.00
3504;DHT22;1766;53.490;10.174;2022-10-16T05:51:05;18.00;51.40
3504;DHT22;1766;53.490;10.174;2022-10-16T05:53:08;18.00;51.60
3504;DHT22;1766;53.490;10.174;2022-10-16T05:55:10;17.90;51.40
3504;DHT22;1766;53.490;10.174;2022-10-16T05:57:11;17.90;51.40
3504;DHT22;1766;53.490;10.174;2022-10-16T05:59:13;17.90;51.50
3504;DHT22;1766;53.490;10.174;2022-10-16T06:01:17;17.90;51.50
3504;DHT22;1766;53.490;10.174;2022-10-16T06:03:21;17.90;51.60
3504;DHT22;1766;53.490;10.174;2022-10-16T06:05:26;18.00;51.70
3504;DHT22;1766;53.490;10.174;2022-10-16T06:07:27;17.90;51.60
3504;DHT22;1766;53.490;10.174;2022-10-16T06:09:29;18.00;51.80
3504;DHT22;1766;53.490;10.174;2022-10-16T06:11:32;17.90;51.80
3504;DHT22;1766;53.490;10.174;2022-10-16T06:13:35;17.90;52.20
3504;DHT22;1766;53.490;10.174;2022-10-16T06:15:37;17.90;52.20
3504;DHT22;1766;53.490;10.174;2022-10-16T06:17:42;18.00;52.50
3504;DHT22;1766;53.490;10.174;2022-10-16T06:19:43;18.00;52.50
3504;DHT22;1766;53.490;10.174;2022-10-16T06:21:46;17.90;52.50
3504;DHT22;1766;53.490;10.174;2022-10-16T06:23:48;18.00;52.60
3504;DHT22;1766;53.490;10.174;2022-10-16T06:25:50;18.10;52.70
3504;DHT22;1766;53.490;10.174;2022-10-16T06:27:52;18.10;52.70
3504;DHT22;1766;53.490;10.174;2022-10-16T06:29:54;18.10;52.70
3504;DHT22;1766;53.490;10.174;2022-10-16T06:31:55;18.10;52.60
3504;DHT22;1766;53.490;10.174;2022-10-16T06:33:58;18.10;52.60
3504;DHT22;1766;53.490;10.174;2022-10-16T06:36:01;18.10;52.70
3504;DHT22;1766;53.490;10.174;2022-10-16T06:38:05;18.10;52.80
3504;DHT22;1766;53.490;10.174;2022-10-16T06:40:07;18.10;52.80
3504;DHT22;1766;53.490;10.174;2022-10-16T06:42:09;18.20;53.10
3504;DHT22;1766;53.490;10.174;2022-10-16T06:44:11;18.10;53.00
3504;DHT22;1766;53.490;10.174;2022-10-16T06:46:14;18.20;52.90
3504;DHT22;1766;53.490;10.174;2022-10-16T06:48:17;18.20;53.20
3504;DHT22;1766;53.490;10.174;2022-10-16T06:50:19;18.20;53.20
3504;DHT22;1766;53.490;10.174;2022-10-16T06:52:21;18.20;53.30
3504;DHT22;1766;53.490;10.174;2022-10-16T06:54:24;18.30;53.50
3504;DHT22;1766;53.490;10.174;2022-10-16T06:56:27;18.30;53.40
3504;DHT22;1766;53.490;10.174;2022-10-16T06:58:30;18.30;53.50
3504;DHT22;1766;53.490;10.174;2022-10-16T07:00:31;18.40;53.50
3504;DHT22;1766;53.490;10.174;2022-10-16T07:02:33;18.40;53.40
3504;DHT22;1766;53.490;10.174;2022-10-16T07:04:35;18.40;53.60
3504;DHT22;1766;53.490;10.174;2022-10-16T07:06:37;18.60;53.90
3504;DHT22;1766;53.490;10.174;2022-10-16T07:08:41;18.50;54.00
3504;DHT22;1766;53.490;10.174;2022-10-16T07:10:45;18.70;54.20
3504;DHT22;1766;53.490;10.174;2022-10-16T07:12:47;18.60;54.00
3504;DHT22;1766;53.490;10.174;2022-10-16T07:14:49;18.70;54.10
3504;DHT22;1766;53.490;10.174;2022-10-16T07:16:52;18.70;54.10
3504;DHT22;1766;53.490;10.174;2022-10-16T07:18:54;18.80;54.30
3504;DHT22;1766;53.490;10.174;2022-10-16T07:21:04;18.80;54.40
3504;DHT22;1766;53.490;10.174;2022-10-16T07:23:06;18.90;54.60
3504;DHT22;1766;53.490;10.174;2022-10-16T07:25:08;19.00;54.70
3504;DHT22;1766;53.490;10.174;2022-10-16T07:27:11;19.10;54.90
3504;DHT22;1766;53.490;10.174;2022-10-16T07:29:15;19.10;55.00
3504;DHT22;1766;53.490;10.174;2022-10-16T07:31:19;19.10;55.30
3504;DHT22;1766;53.490;10.174;2022-10-16T07:33:22;19.30;55.60
3504;DHT22;1766;53.490;10.174;2022-10-16T07:35:24;19.50;55.80
3504;DHT22;1766;53.490;10.174;2022-10-16T07:37:25;19.50;55.90
3504;DHT22;1766;53.490;10.174;2022-10-16T07:39:27;19.70;56.10
3504;DHT22;1766;53.490;10.174;2022-10-16T07:41:29;19.80;56.10
3504;DHT22;1766;53.490;10.174;2022-10-16T07:43:34;19.90;56.30
3504;DHT22;1766;53.490;10.174;2022-10-16T07:45:36;20.00;56.30
3504;DHT22;1766;53.490;10.174;2022-10-16T07:47:38;20.20;56.50
3504;DHT22;1766;53.490;10.174;2022-10-16T07:49:40;20.30;56.60
3504;DHT22;1766;53.490;10.174;2022-10-16T07:51:42;20.30;56.90
3504;DHT22;1766;53.490;10.174;2022-10-16T07:53:43;20.40;56.90
3504;DHT22;1766;53.490;10.174;2022-10-16T07:55:45;20.50;56.80
3504;DHT22;1766;53.490;10.174;2022-10-16T07:57:47;20.70;56.80
3504;DHT22;1766;53.490;10.174;2022-10-16T07:59:50;20.70;56.50
3504;DHT22;1766;53.490;10.174;2022-10-16T08:01:52;20.90;56.80
3504;DHT22;1766;53.490;10.174;2022-10-16T08:03:54;21.00;56.90
3504;DHT22;1766;53.490;10.174;2022-10-16T08:05:57;21.10;56.80
3504;DHT22;1766;53.490;10.174;2022-10-16T08:07:59;21.20;57.00
3504;DHT22;1766;53.490;10.174;2022-10-16T08:10:02;21.30;56.90
3504;DHT22;1766;53.490;10.174;2022-10-16T08:12:05;21.40;56.70
3504;DHT22;1766;53.490;10.174;2022-10-16T08:14:07;21.50;56.00
3504;DHT22;1766;53.490;10.174;2022-10-16T08:16:11;21.50;56.30
3504;DHT22;1766;53.490;10.174;2022-10-16T08:18:14;21.60;56.00
3504;DHT22;1766;53.490;10.174;2022-10-16T08:20:16;21.60;55.80
3504;DHT22;1766;53.490;10.174;2022-10-16T08:22:18;21.60;55.50
3504;DHT22;1766;53.490;10.174;2022-10-16T08:24:20;21.60;55.20
3504;DHT22;1766;53.490;10.174;2022-10-16T08:26:22;21.60;55.00
3504;DHT22;1766;53.490;10.174;2022-10-16T08:28:24;21.60;55.00
3504;DHT22;1766;53.490;10.174;2022-10-16T08:30:25;21.60;54.60
3504;DHT22;1766;53.490;10.174;2022-10-16T08:32:29;21.60;54.70
3504;DHT22;1766;53.490;10.174;2022-10-16T08:34:30;21.60;54.50
3504;DHT22;1766;53.490;10.174;2022-10-16T08:36:32;21.30;54.10
3504;DHT22;1766;53.490;10.174;2022-10-16T08:38:34;21.50;54.10
3504;DHT22;1766;53.490;10.174;2022-10-16T08:40:37;21.50;54.00
3504;DHT22;1766;53.490;10.174;2022-10-16T08:42:52;21.60;54.10
3504;DHT22;1766;53.490;10.174;2022-10-16T08:45:13;21.60;54.20
3504;DHT22;1766;53.490;10.174;2022-10-16T08:47:24;21.60;54.00
3504;DHT22;1766;53.490;10.174;2022-10-16T08:49:30;21.70;53.90
3504;DHT22;1766;53.490;10.174;2022-10-16T08:51:35;21.80;53.80
3504;DHT22;1766;53.490;10.174;2022-10-16T08:53:42;21.90;53.70
3504;DHT22;1766;53.490;10.174;2022-10-16T08:55:49;22.00;53.60
3504;DHT22;1766;53.490;10.174;2022-10-16T08:57:52;22.00;53.50
3504;DHT22;1766;53.490;10.174;2022-10-16T08:59:59;22.20;53.40
3504;DHT22;1766;53.490;10.174;2022-10-16T09:02:02;22.20;53.30
3504;DHT22;1766;53.490;10.174;2022-10-16T09:04:42;22.30;53.00
3504;DHT22;1766;53.490;10.174;2022-10-16T09:06:53;22.30;52.90
3504;DHT22;1766;53.490;10.174;2022-10-16T09:09:10;22.40;52.70
3504;DHT22;1766;53.490;10.174;2022-10-16T09:11:29;22.40;52.40
3504;DHT22;1766;53.490;10.174;2022-10-16T09:13:43;22.40;52.20
3504;DHT22;1766;53.490;10.174;2022-10-16T09:15:51;22.50;52.60
3504;DHT22;1766;53.490;10.174;2022-10-16T09:18:01;22.60;52.00
3504;DHT22;1766;53.490;10.174;2022-10-16T09:20:17;22.80;51.80
3504;DHT22;1766;53.490;10.174;2022-10-16T09:22:27;22.70;51.60
3504;DHT22;1766;53.490;10.174;2022-10-16T09:24:30;22.80;51.40
3504;DHT22;1766;53.490;10.174;2022-10-16T09:26:31;22.80;51.10
3504;DHT22;1766;53.490;10.174;2022-10-16T09:28:33;22.90;50.90
3504;DHT22;1766;53.490;10.174;2022-10-16T09:30:35;22.90;50.60
3504;DHT22;1766;53.490;10.174;2022-10-16T09:32:39;22.90;50.50
3504;DHT22;1766;53.490;10.174;2022-10-16T09:34:45;22.90;50.50
3504;DHT22;1766;53.490;10.174;2022-10-16T09:36:50;22.90;50.30
3504;DHT22;1766;53.490;10.174;2022-10-16T09:39:03;22.90;50.10
3504;DHT22;1766;53.490;10.174;2022-10-16T09:41:15;22.90;49.90
3504;DHT22;1766;53.490;10.174;2022-10-16T09:43:22;23.00;49.70
3504;DHT22;1766;53.490;10.174;2022-10-16T09:45:28;23.10;49.70
3504;DHT22;1766;53.490;10.174;2022-10-16T09:47:31;23.10;49.30
3504;DHT22;1766;53.490;10.174;2022-10-16T09:49:33;23.10;49.30
3504;DHT22;1766;53.490;10.174;2022-10-16T09:51:36;23.20;49.10
3504;DHT22;1766;53.490;10.174;2022-10-16T09:53:42;23.20;48.90
3504;DHT22;1766;53.490;10.174;2022-10-16T09:55:48;23.30;48.60
3504;DHT22;1766;53.490;10.174;2022-10-16T09:57:52;23.30;48.40
3504;DHT22;1766;53.490;10.174;2022-10-16T09:59:55;23.40;48.20
3504;DHT22;1766;53.490;10.174;2022-10-16T10:02:02;23.40;48.10
3504;DHT22;1766;53.490;10.174;2022-10-16T10:04:06;23.50;47.90
3504;DHT22;1766;53.490;10.174;2022-10-16T10:06:18;23.50;47.40
3504;DHT22;1766;53.490;10.174;2022-10-16T10:08:23;23.50;47.20
3504;DHT22;1766;53.490;10.174;2022-10-16T10:10:27;23.50;46.90
3504;DHT22;1766;53.490;10.174;2022-10-16T10:12:31;23.50;46.90
3504;DHT22;1766;53.490;10.174;2022-10-16T10:14:37;23.50;46.80
3504;DHT22;1766;53.490;10.174;2022-10-16T10:16:40;23.50;46.50
3504;DHT22;1766;53.490;10.174;2022-10-16T10:18:42;23.60;46.40
3504;DHT22;1766;53.490;10.174;2022-10-16T10:20:44;23.60;46.40
3504;DHT22;1766;53.490;10.174;2022-10-16T10:22:46;23.70;46.40
3504;DHT22;1766;53.490;10.174;2022-10-16T10:24:55;23.70;46.10
3504;DHT22;1766;53.490;10.174;2022-10-16T10:27:04;23.80;46.20
3504;DHT22;1766;53.490;10.174;2022-10-16T10:29:16;23.80;45.90
3504;DHT22;1766;53.490;10.174;2022-10-16T10:31:28;23.80;45.60
3504;DHT22;1766;53.490;10.174;2022-10-16T10:33:42;23.90;45.50
3504;DHT22;1766;53.490;10.174;2022-10-16T10:35:53;23.90;45.30
3504;DHT22;1766;53.490;10.174;2022-10-16T10:38:09;23.90;44.80
3504;DHT22;1766;53.490;10.174;2022-10-16T10:40:30;24.00;44.90
3504;DHT22;1766;53.490;10.174;2022-10-16T10:42:44;24.10;44.50
3504;DHT22;1766;53.490;10.174;2022-10-16T10:45:01;24.20;44.10
3504;DHT22;1766;53.490;10.174;2022-10-16T10:47:18;24.20;43.90
3504;DHT22;1766;53.490;10.174;2022-10-16T10:49:38;24.30;43.70
3504;DHT22;1766;53.490;10.174;2022-10-16T10:51:53;24.20;43.40
3504;DHT22;1766;53.490;10.174;2022-10-16T10:54:10;24.40;42.90
3504;DHT22;1766;53.490;10.174;2022-10-16T10:56:24;24.40;42.70
3504;DHT22;1766;53.490;10.174;2022-10-16T10:58:51;24.40;42.30
3504;DHT22;1766;53.490;10.174;2022-10-16T11:01:07;24.60;42.40
3504;DHT22;1766;53.490;10.174;2022-10-16T11:03:25;24.60;42.20
3504;DHT22;1766;53.490;10.174;2022-10-16T11:05:39;24.80;41.90
3504;DHT22;1766;53.490;10.174;2022-10-16T11:07:47;25.10;41.50
3504;DHT22;1766;53.490;10.174;2022-10-16T11:09:53;25.20;41.20
3504;DHT22;1766;53.490;10.174;2022-10-16T11:12:01;25.30;40.80
3504;DHT22;1766;53.490;10.174;2022-10-16T11:14:14;25.40;40.00
3504;DHT22;1766;53.490;10.174;2022-10-16T11:16:25;25.50;39.90
3504;DHT22;1766;53.490;10.174;2022-10-16T11:18:44;26.40;40.00
3504;DHT22;1766;53.490;10.174;2022-10-16T11:20:52;28.00;37.80
3504;DHT22;1766;53.490;10.174;2022-10-16T11:23:01;29.30;35.40
3504;DHT22;1766;53.490;10.174;2022-10-16T11:25:16;30.00;34.20
3504;DHT22;1766;53.490;10.174;2022-10-16T11:27:24;31.10;33.10
3504;DHT22;1766;53.490;10.174;2022-10-16T11:29:31;32.30;31.50
3504;DHT22;1766;53.490;10.174;2022-10-16T11:31:37;33.10;29.90
3504;DHT22;1766;53.490;10.174;2022-10-16T11:33:45;33.80;29.30
3504;DHT22;1766;53.490;10.174;2022-10-16T11:35:52;33.70;28.60
3504;DHT22;1766;53.490;10.174;2022-10-16T11:37:56;33.20;28.60
3504;DHT22;1766;53.490;10.174;2022-10-16T11:40:11;32.70;28.60
3504;DHT22;1766;53.490;10.174;2022-10-16T11:42:25;32.30;29.50
3504;DHT22;1766;53.490;10.174;2022-10-16T11:44:44;32.20;28.70
3504;DHT22;1766;53.490;10.174;2022-10-16T11:47:00;31.30;28.90
3504;DHT22;1766;53.490;10.174;2022-10-16T11:49:10;30.30;29.80
3504;DHT22;1766;53.490;10.174;2022-10-16T11:51:21;30.30;30.30
3504;DHT22;1766;53.490;10.174;2022-10-16T11:53:38;30.60;29.80
3504;DHT22;1766;53.490;10.174;2022-10-16T11:55:46;30.20;29.70
3504;DHT22;1766;53.490;10.174;2022-10-16T11:57:51;29.50;30.10
3504;DHT22;1766;53.490;10.174;2022-10-16T11:59:59;29.40;31.00
3504;DHT22;1766;53.490;10.174;2022-10-16T12:02:21;29.00;31.70
3504;DHT22;1766;53.490;10.174;2022-10-16T12:04:33;28.80;31.50
3504;DHT22;1766;53.490;10.174;2022-10-16T12:06:48;28.80;31.70
3504;DHT22;1766;53.490;10.174;2022-10-16T12:08:53;28.90;31.20
3504;DHT22;1766;53.490;10.174;2022-10-16T12:11:07;29.10;30.90
3504;DHT22;1766;53.490;10.174;2022-10-16T12:13:28;29.10;30.80
3504;DHT22;1766;53.490;10.174;2022-10-16T12:15:34;29.20;31.10
3504;DHT22;1766;53.490;10.174;2022-10-16T12:17:37;29.60;31.60
3504;DHT22;1766;53.490;10.174;2022-10-16T12:19:39;30.00;30.60
3504;DHT22;1766;53.490;10.174;2022-10-16T12:21:41;30.10;30.20
3504;DHT22;1766;53.490;10.174;2022-10-16T12:23:48;29.90;30.30
3504;DHT22;1766;53.490;10.174;2022-10-16T12:25:54;29.50;30.50
3504;DHT22;1766;53.490;10.174;2022-10-16T12:27:59;29.00;31.00
3504;DHT22;1766;53.490;10.174;2022-10-16T12:30:04;28.70;31.50
3504;DHT22;1766;53.490;10.174;2022-10-16T12:32:29;28.20;31.80
3504;DHT22;1766;53.490;10.174;2022-10-16T12:34:38;27.60;33.00
3504;DHT22;1766;53.490;10.174;2022-10-16T12:36:41;27.40;32.80
3504;DHT22;1766;53.490;10.174;2022-10-16T12:38:47;27.40;32.90
3504;DHT22;1766;53.490;10.174;2022-10-16T12:40:58;27.20;33.00
3504;DHT22;1766;53.490;10.174;2022-10-16T12:43:12;27.10;33.10
3504;DHT22;1766;53.490;10.174;2022-10-16T12:45:31;26.90;33.40
3504;DHT22;1766;53.490;10.174;2022-10-16T12:47:47;26.70;33.80
3504;DHT22;1766;53.490;10.174;2022-10-16T12:49:51;26.50;34.10
3504;DHT22;1766;53.490;10.174;2022-10-16T12:51:55;26.30;34.50
3504;DHT22;1766;53.490;10.174;2022-10-16T12:53:59;26.10;34.80
3504;DHT22;1766;53.490;10.174;2022-10-16T12:56:08;26.20;35.00
3504;DHT22;1766;53.490;10.174;2022-10-16T12:58:25;26.40;34.90
3504;DHT22;1766;53.490;10.174;2022-10-16T13:00:41;26.70;34.60
3504;DHT22;1766;53.490;10.174;2022-10-16T13:02:59;26.90;34.30
3504;DHT22;1766;53.490;10.174;2022-10-16T13:05:26;27.10;34.00
3504;DHT22;1766;53.490;10.174;2022-10-16T13:07:44;27.30;33.50
3504;DHT22;1766;53.490;10.174;2022-10-16T13:10:03;27.50;33.30
3504;DHT22;1766;53.490;10.174;2022-10-16T13:12:23;27.50;33.30
3504;DHT22;1766;53.490;10.174;2022-10-16T13:14:51;27.50;33.50
3504;DHT22;1766;53.490;10.174;2022-10-16T13:17:06;27.60;33.20
3504;DHT22;1766;53.490;10.174;2022-10-16T13:19:20;27.80;33.00
3504;DHT22;1766;53.490;10.174;2022-10-16T13:21:34;28.00;32.90
3504;DHT22;1766;53.490;10.174;2022-10-16T13:23:45;27.90;32.60
3504;DHT22;1766;53.490;10.174;2022-10-16T13:26:01;27.90;32.60
3504;DHT22;1766;53.490;10.174;2022-10-16T13:28:13;27.60;32.50